Time;durP1;ratioP1;P1;durP2;ratioP2;P2;SDS_P1;SDS_P2;PMS_P1;PMS_P2;Temp;Humidity;BMP_temperature;BMP_pressure;BME280_temperature;BME280_humidity;BME280_pressure;Samples;Min_cycle;Max_cycle;Signal;HPM_P1;HPM_P2
2021/10/20 00:01:56;;;;;;;9.85;5.30;;;;;;;10.86;100.00;98280.28;4986902;28;20800;-61
2021/10/20 00:04:22;;;;;;;8.48;5.00;;;;;;;10.75;99.82;98273.72;4987936;28;20052;-61
2021/10/20 00:06:47;;;;;;;11.32;5.85;;;;;;;10.68;100.00;98273.97;4986978;28;20643;-60
2021/10/20 00:09:12;;;;;;;12.00;6.15;;;;;;;10.59;100.00;98263.00;4986356;28;20530;-62
2021/10/20 00:11:38;;;;;;;11.32;6.63;;;;;;;10.58;100.00;98263.88;4987654;28;20030;-63
2021/10/20 00:14:03;;;;;;;7.78;5.03;;;;;;;10.55;100.00;98258.81;4984494;28;20038;-62
2021/10/20 00:16:29;;;;;;;9.77;6.53;;;;;;;10.63;100.00;98255.06;4988291;28;20042;-62
2021/10/20 00:18:54;;;;;;;11.20;7.50;;;;;;;10.06;100.00;98257.91;4987882;28;20057;-63
2021/10/20 00:21:25;;;;;;;11.00;6.38;;;;;;;10.58;100.00;98269.09;4985530;28;20038;-61
2021/10/20 00:23:50;;;;;;;9.93;6.05;;;;;;;10.49;100.00;98256.41;4988378;28;20022;-60
2021/10/20 00:26:16;;;;;;;9.65;6.22;;;;;;;10.28;100.00;98259.78;4989658;28;20037;-59
2021/10/20 00:28:41;;;;;;;11.77;6.40;;;;;;;10.28;100.00;98250.19;4990769;28;20090;-60
2021/10/20 00:31:06;;;;;;;12.85;7.60;;;;;;;10.42;99.71;98252.31;4994045;28;20088;-61
2021/10/20 00:33:32;;;;;;;7.07;4.53;;;;;;;10.48;100.00;98262.53;4988002;28;20488;-61
2021/10/20 00:35:57;;;;;;;10.75;6.68;;;;;;;10.41;100.00;98251.47;4988666;28;20855;-60
2021/10/20 00:38:23;;;;;;;10.38;6.25;;;;;;;10.35;100.00;98251.69;4990228;28;20037;-62
2021/10/20 00:40:52;;;;;;;13.88;7.18;;;;;;;10.29;100.00;98249.25;4986036;28;20407;-60
2021/10/20 00:43:22;;;;;;;7.05;4.00;;;;;;;10.85;98.50;98250.72;4991421;28;20423;-61
2021/10/20 00:45:48;;;;;;;12.18;6.20;;;;;;;10.41;99.40;98237.59;4988087;28;20061;-59
2021/10/20 00:48:15;;;;;;;8.27;5.10;;;;;;;10.52;99.95;98238.03;4985283;28;20038;-61
2021/10/20 00:50:40;;;;;;;9.73;6.07;;;;;;;10.55;97.11;98232.72;4988047;28;20155;-59
2021/10/20 00:53:06;;;;;;;10.60;6.10;;;;;;;10.36;99.56;98231.69;4989059;28;20614;-61
2021/10/20 00:55:31;;;;;;;8.70;5.47;;;;;;;10.23;100.00;98231.25;4987996;28;20038;-61
2021/10/20 00:57:57;;;;;;;9.10;5.72;;;;;;;10.52;98.17;98227.63;4988176;28;20015;-62
2021/10/20 01:00:23;;;;;;;10.02;6.97;;;;;;;10.31;99.83;98228.38;4988009;28;20030;-60
2021/10/20 01:02:48;;;;;;;9.52;5.90;;;;;;;10.41;98.93;98224.56;4987921;28;20171;-61
2021/10/20 01:05:14;;;;;;;6.43;4.43;;;;;;;10.51;98.36;98214.63;4986252;28;20041;-62
2021/10/20 01:07:40;;;;;;;13.18;6.85;;;;;;;10.45;97.78;98212.25;4988308;28;20023;-60
2021/10/20 01:10:09;;;;;;;9.00;5.97;;;;;;;10.41;98.37;98211.50;4987383;28;20056;-61
2021/10/20 01:12:36;;;;;;;10.73;7.25;;;;;;;10.22;100.00;98204.34;4986183;28;20043;-60
2021/10/20 01:15:13;;;;;;;11.00;6.68;;;;;;;10.15;100.00;98202.84;4985812;28;20029;-59
2021/10/20 01:17:41;;;;;;;11.18;6.60;;;;;;;10.15;99.79;98197.63;4990061;28;20488;-61
2021/10/20 01:20:08;;;;;;;10.18;6.80;;;;;;;10.12;99.89;98194.28;4987168;28;20052;-59
2021/10/20 01:22:34;;;;;;;12.80;7.72;;;;;;;10.13;100.00;98193.41;4992655;28;20651;-62
2021/10/20 01:25:00;;;;;;;13.52;8.18;;;;;;;10.13;100.00;98189.03;4993168;28;20680;-60
2021/10/20 01:27:26;;;;;;;10.95;5.88;;;;;;;10.14;100.00;98185.50;4992812;28;20054;-62
2021/10/20 01:29:52;;;;;;;9.63;6.40;;;;;;;10.22;98.85;98182.63;4993865;28;20030;-60
2021/10/20 01:32:17;;;;;;;9.10;6.20;;;;;;;10.48;99.38;98183.47;4989448;28;20101;-59
2021/10/20 01:34:43;;;;;;;10.95;6.40;;;;;;;10.33;97.71;98169.22;4991217;28;20022;-61
2021/10/20 01:37:09;;;;;;;7.13;4.60;;;;;;;10.43;98.13;98162.75;4989614;28;20073;-59
2021/10/20 01:39:35;;;;;;;9.50;5.85;;;;;;;10.19;97.81;98162.72;4989873;28;20038;-61
2021/10/20 01:42:01;;;;;;;9.27;6.05;;;;;;;10.29;98.53;98151.97;4988648;28;20069;-60
2021/10/20 01:44:27;;;;;;;9.35;6.05;;;;;;;10.25;98.87;98150.38;4990558;28;20030;-60
2021/10/20 01:46:56;;;;;;;6.75;3.72;;;;;;;10.55;98.90;98143.16;4987880;28;20072;-59
2021/10/20 01:49:22;;;;;;;10.85;5.47;;;;;;;10.36;98.60;98143.03;4989306;28;20073;-60
2021/10/20 01:51:47;;;;;;;7.20;3.95;;;;;;;10.29;100.00;98138.91;4988837;28;20046;-60
2021/10/20 01:54:13;;;;;;;6.40;4.60;;;;;;;10.11;99.90;98141.31;4991540;28;20482;-60
2021/10/20 01:56:39;;;;;;;11.38;6.82;;;;;;;9.98;100.00;98132.22;4986563;28;20149;-61
2021/10/20 01:59:04;;;;;;;14.95;6.78;;;;;;;9.86;100.00;98122.28;4987832;28;20097;-60
2021/10/20 02:01:30;;;;;;;15.23;7.82;;;;;;;9.41;100.00;98124.69;4987553;28;20100;-59
2021/10/20 02:03:55;;;;;;;12.27;5.45;;;;;;;9.83;100.00;98120.59;4990322;28;20100;-60
2021/10/20 02:06:20;;;;;;;11.02;6.35;;;;;;;9.81;100.00;98114.63;4989963;28;20061;-60
2021/10/20 02:08:47;;;;;;;9.98;6.10;;;;;;;9.57;100.00;98113.72;4992290;28;20032;-61
2021/10/20 02:11:13;;;;;;;8.45;4.97;;;;;;;9.92;100.00;98106.41;4987942;28;20050;-59
2021/10/20 02:13:40;;;;;;;13.70;7.00;;;;;;;9.56;100.00;98112.88;4991605;28;20041;-61
2021/10/20 02:16:05;;;;;;;11.30;6.78;;;;;;;9.14;100.00;98103.03;4990276;28;20049;-61
2021/10/20 02:18:31;;;;;;;9.20;5.80;;;;;;;9.70;99.41;98107.19;4991819;28;20030;-62
2021/10/20 02:20:57;;;;;;;8.70;5.60;;;;;;;9.71;100.00;98111.50;4987939;28;20041;-60
2021/10/20 02:23:23;;;;;;;10.02;6.03;;;;;;;9.28;100.00;98105.16;4991903;28;20029;-60
2021/10/20 02:25:48;;;;;;;7.25;4.90;;;;;;;9.61;100.00;98102.28;4989387;28;20120;-60
2021/10/20 02:28:14;;;;;;;11.93;5.40;;;;;;;9.83;100.00;98095.44;4986190;28;20026;-60
2021/10/20 02:30:41;;;;;;;12.32;6.38;;;;;;;9.53;100.00;98088.72;4987427;28;20115;-61
2021/10/20 02:33:06;;;;;;;8.85;5.40;;;;;;;9.67;99.55;98096.88;4989398;28;20129;-59
2021/10/20 02:35:31;;;;;;;13.25;5.57;;;;;;;9.67;98.89;98093.41;4988877;28;20455;-64
2021/10/20 02:37:57;;;;;;;8.95;5.53;;;;;;;9.81;98.04;98088.56;4990384;28;20029;-63
2021/10/20 02:40:22;;;;;;;9.10;5.90;;;;;;;9.57;99.57;98085.09;4988722;28;20037;-60
2021/10/20 02:42:48;;;;;;;8.02;5.53;;;;;;;9.82;99.86;98085.06;4990237;28;20026;-60
2021/10/20 02:45:15;;;;;;;8.00;5.03;;;;;;;9.68;97.73;98082.09;4992122;28;20033;-59
2021/10/20 02:47:41;;;;;;;12.25;5.95;;;;;;;9.60;100.00;98085.00;4989609;28;20034;-61
2021/10/20 02:50:08;;;;;;;9.95;5.63;;;;;;;9.74;100.00;98085.34;4989580;28;20029;-60
2021/10/20 02:52:33;;;;;;;11.48;6.82;;;;;;;9.45;100.00;98084.63;4988088;28;20026;-62
2021/10/20 02:54:59;;;;;;;11.13;6.40;;;;;;;9.62;100.00;98072.75;4988239;28;20026;-59
2021/10/20 02:57:24;;;;;;;13.93;6.97;;;;;;;9.57;100.00;98069.47;4987121;28;20052;-61
2021/10/20 02:59:51;;;;;;;7.75;4.43;;;;;;;9.80;100.00;98074.69;4989105;28;20052;-59
2021/10/20 03:02:17;;;;;;;9.63;5.88;;;;;;;9.63;100.00;98069.22;4987841;28;20034;-59
2021/10/20 03:04:43;;;;;;;8.05;5.10;;;;;;;9.73;99.91;98081.03;4988662;28;20072;-62
2021/10/20 03:07:09;;;;;;;10.65;6.40;;;;;;;9.58;99.50;98066.81;4989080;28;20030;-61
2021/10/20 03:09:34;;;;;;;9.15;6.07;;;;;;;9.65;100.00;98068.28;4990920;28;20045;-62
2021/10/20 03:11:59;;;;;;;8.23;5.38;;;;;;;9.77;98.89;98064.38;4990483;28;20041;-64
2021/10/20 03:14:25;;;;;;;8.45;5.47;;;;;;;9.73;98.38;98065.41;4990598;28;20042;-60
2021/10/20 03:16:50;;;;;;;8.95;5.22;;;;;;;9.75;98.96;98052.31;4987883;28;20104;-62
2021/10/20 03:19:15;;;;;;;7.35;4.75;;;;;;;9.76;98.72;98061.81;4990194;28;20125;-59
2021/10/20 03:21:41;;;;;;;8.18;4.78;;;;;;;9.66;99.17;98061.31;4988507;28;20069;-59
2021/10/20 03:24:07;;;;;;;9.82;6.10;;;;;;;9.50;98.62;98063.63;4989401;28;20026;-61
2021/10/20 03:26:33;;;;;;;10.57;5.90;;;;;;;9.39;98.92;98061.41;4990151;28;20049;-59
2021/10/20 03:28:59;;;;;;;10.52;6.00;;;;;;;9.09;100.00;98062.47;4991491;28;20034;-60
2021/10/20 03:31:24;;;;;;;10.73;6.22;;;;;;;9.28;98.80;98066.13;4989406;28;20033;-59
2021/10/20 03:33:49;;;;;;;9.88;6.10;;;;;;;9.33;97.70;98060.78;4986954;28;20049;-60
2021/10/20 03:36:15;;;;;;;9.77;6.03;;;;;;;9.35;98.01;98065.00;4991308;28;20042;-61
2021/10/20 03:38:40;;;;;;;12.70;6.70;;;;;;;9.16;98.28;98059.59;4990693;28;20029;-61
2021/10/20 03:41:05;;;;;;;7.40;4.38;;;;;;;9.31;97.36;98055.63;4990887;28;20149;-61
2021/10/20 03:43:31;;;;;;;9.05;5.00;;;;;;;9.29;98.37;98049.63;4990252;28;20034;-62
2021/10/20 03:45:56;;;;;;;6.30;4.00;;;;;;;9.20;98.57;98039.53;4990361;28;20034;-59
2021/10/20 03:48:22;;;;;;;8.30;5.15;;;;;;;9.25;98.12;98040.22;4990510;28;20259;-60
2021/10/20 03:50:47;;;;;;;12.98;7.30;;;;;;;9.17;97.96;98034.41;4988985;28;20514;-61
2021/10/20 03:53:13;;;;;;;14.65;8.52;;;;;;;9.01;100.00;98029.75;4991703;28;20045;-60
2021/10/20 03:55:38;;;;;;;7.63;4.68;;;;;;;9.36;100.00;98024.22;4989413;28;20041;-59
2021/10/20 03:58:04;;;;;;;8.98;5.65;;;;;;;9.36;97.47;98019.03;4989171;28;20030;-59
2021/10/20 04:00:30;;;;;;;14.65;7.38;;;;;;;9.19;97.96;98017.00;4989164;28;20038;-61
2021/10/20 04:02:56;;;;;;;7.10;4.75;;;;;;;9.34;98.26;98007.81;4991192;28;20121;-59
2021/10/20 04:05:21;;;;;;;8.45;5.60;;;;;;;9.21;98.75;98000.44;4990080;28;20231;-62
2021/10/20 04:07:49;;;;;;;13.00;5.90;;;;;;;8.51;100.00;97998.50;4988560;28;20037;-61
2021/10/20 04:10:20;;;;;;;5.63;3.50;;;;;;;9.50;100.00;98006.34;4987195;28;20030;-61
2021/10/20 04:12:45;;;;;;;7.85;4.68;;;;;;;9.31;97.62;98005.31;4989706;28;20126;-60
2021/10/20 04:15:12;;;;;;;9.73;4.70;;;;;;;9.09;99.21;98006.06;4989134;28;20022;-61
2021/10/20 04:17:38;;;;;;;11.82;6.40;;;;;;;8.56;99.91;98006.97;4990182;28;20095;-60
2021/10/20 04:20:09;;;;;;;9.90;5.65;;;;;;;8.80;98.90;98007.91;4988660;28;20759;-59
2021/10/20 04:22:35;;;;;;;9.93;5.68;;;;;;;8.96;97.50;98003.03;4987682;28;20069;-59
2021/10/20 04:25:02;;;;;;;8.98;5.35;;;;;;;8.65;98.83;97993.66;4988404;28;20108;-61
2021/10/20 04:27:27;;;;;;;8.10;4.28;;;;;;;8.78;99.13;97994.09;4988109;28;20030;-61
2021/10/20 04:29:54;;;;;;;9.07;4.50;;;;;;;8.86;97.75;97992.09;4986149;28;20030;-59
2021/10/20 04:32:19;;;;;;;11.57;5.53;;;;;;;8.47;100.00;97986.47;4987359;28;20061;-61
2021/10/20 04:34:45;;;;;;;9.07;5.38;;;;;;;8.66;98.15;97986.75;4986103;28;20034;-60
2021/10/20 04:37:10;;;;;;;7.57;5.43;;;;;;;8.50;100.00;97996.78;4989249;28;20062;-59
2021/10/20 04:39:35;;;;;;;10.15;5.68;;;;;;;8.50;99.71;97991.59;4985504;28;20038;-59
2021/10/20 04:42:01;;;;;;;8.65;5.22;;;;;;;8.44;100.00;97986.59;4989602;28;20034;-59
2021/10/20 04:44:26;;;;;;;11.88;6.05;;;;;;;8.01;100.00;97988.75;4986830;28;20025;-63
2021/10/20 04:46:51;;;;;;;13.20;5.90;;;;;;;8.17;100.00;97988.28;4985983;28;20073;-60
2021/10/20 04:49:17;;;;;;;6.85;4.32;;;;;;;8.56;100.00;97980.97;4988755;28;20054;-59
2021/10/20 04:51:42;;;;;;;9.88;4.72;;;;;;;8.43;99.98;97985.72;4986581;28;20463;-60
2021/10/20 04:54:07;;;;;;;7.13;4.28;;;;;;;8.53;98.23;97985.44;4987598;28;20057;-60
2021/10/20 04:56:33;;;;;;;8.18;5.00;;;;;;;8.58;97.45;97973.13;4989504;28;20038;-60
2021/10/20 04:58:58;;;;;;;9.32;5.40;;;;;;;8.56;98.50;97973.19;4992343;28;20038;-60
2021/10/20 05:01:23;;;;;;;6.75;4.38;;;;;;;8.44;97.60;97968.41;4990544;28;20045;-62
2021/10/20 05:03:49;;;;;;;10.07;4.38;;;;;;;8.60;97.62;97971.31;5008917;28;20566;-62
2021/10/20 05:06:14;;;;;;;8.45;5.13;;;;;;;8.55;97.51;97968.06;4995248;28;20128;-63
2021/10/20 05:08:40;;;;;;;12.70;5.85;;;;;;;8.61;98.05;97963.47;4993201;28;20022;-62
2021/10/20 05:11:05;;;;;;;9.60;5.47;;;;;;;8.34;98.14;97964.34;4993360;28;20568;-63
2021/10/20 05:13:30;;;;;;;8.80;5.00;;;;;;;8.53;97.57;97955.09;4977985;28;20038;-62
2021/10/20 05:15:55;;;;;;;9.88;5.30;;;;;;;8.35;97.59;97951.31;4994218;28;20038;-62
2021/10/20 05:18:21;;;;;;;10.07;6.20;;;;;;;8.05;99.87;97954.00;4994438;28;20451;-63
2021/10/20 05:20:47;;;;;;;9.60;5.20;;;;;;;8.32;97.56;97945.38;4992000;28;20043;-62
2021/10/20 05:23:13;;;;;;;11.15;5.95;;;;;;;8.18;97.52;97938.00;4993932;28;20052;-61
2021/10/20 05:25:38;;;;;;;12.88;6.15;;;;;;;8.29;96.39;97931.59;4992550;28;20038;-62
2021/10/20 05:28:05;;;;;;;9.57;5.18;;;;;;;8.36;97.58;97928.78;4992847;28;20435;-62
2021/10/20 05:30:31;;;;;;;8.07;3.95;;;;;;;8.58;96.38;97937.56;4994137;28;20073;-62
2021/10/20 05:32:56;;;;;;;8.30;3.42;;;;;;;8.79;97.40;97937.75;4991902;28;20069;-62
2021/10/20 05:35:22;;;;;;;6.75;4.07;;;;;;;8.77;96.45;97942.16;4990086;28;20809;-63
2021/10/20 05:37:50;;;;;;;8.90;5.22;;;;;;;8.52;97.45;97937.78;4993537;28;20054;-61
2021/10/20 05:40:16;;;;;;;9.15;5.40;;;;;;;8.28;98.26;97937.66;4993755;28;20041;-63
2021/10/20 05:42:42;;;;;;;12.60;6.50;;;;;;;8.13;98.20;97935.59;4993594;28;20034;-62
2021/10/20 05:45:07;;;;;;;7.38;4.68;;;;;;;8.43;97.31;97935.50;4991691;28;20080;-62
2021/10/20 05:47:33;;;;;;;5.38;2.70;;;;;;;9.04;99.67;97936.00;4996542;28;20026;-64
2021/10/20 05:49:58;;;;;;;10.50;6.55;;;;;;;8.15;97.50;97931.19;4994836;28;20037;-62
2021/10/20 05:52:23;;;;;;;9.38;5.55;;;;;;;8.18;98.49;97931.09;4991221;28;20092;-62
2021/10/20 05:54:49;;;;;;;10.88;6.13;;;;;;;8.52;98.45;97931.75;4991996;28;20175;-61
2021/10/20 05:57:14;;;;;;;14.05;9.25;;;;;;;8.34;95.92;97934.00;4992294;28;20415;-62
2021/10/20 05:59:39;;;;;;;11.52;5.60;;;;;;;8.54;96.13;97932.53;4992868;28;20041;-62
2021/10/20 06:02:06;;;;;;;7.95;4.70;;;;;;;8.38;96.74;97932.16;4989333;28;20045;-62
2021/10/20 06:04:32;;;;;;;10.32;6.57;;;;;;;8.46;95.76;97938.00;4989729;28;20027;-61
2021/10/20 06:06:58;;;;;;;7.80;4.95;;;;;;;8.86;96.42;97936.66;4990520;28;20030;-63
2021/10/20 06:09:23;;;;;;;12.63;7.43;;;;;;;8.57;98.08;97938.50;4993468;28;20045;-62
2021/10/20 06:11:49;;;;;;;14.25;7.35;;;;;;;8.55;99.13;97932.50;4990900;28;20038;-64
2021/10/20 06:14:14;;;;;;;14.75;8.20;;;;;;;8.59;99.12;97939.28;4989890;28;20388;-62
2021/10/20 06:16:41;;;;;;;18.25;7.65;;;;;;;8.68;97.58;97925.13;4990873;28;20152;-63
2021/10/20 06:19:07;;;;;;;11.35;7.25;;;;;;;8.86;97.58;97931.44;4992478;28;20027;-62
2021/10/20 06:21:33;;;;;;;17.35;7.20;;;;;;;8.91;97.60;97929.50;4989401;28;20132;-62
2021/10/20 06:23:59;;;;;;;15.10;7.80;;;;;;;8.99;97.68;97927.50;4991171;28;20022;-61
2021/10/20 06:26:25;;;;;;;14.18;7.97;;;;;;;9.14;98.74;97928.69;4992154;28;20044;-62
2021/10/20 06:28:50;;;;;;;13.85;7.75;;;;;;;9.20;98.20;97930.22;4991564;28;20104;-64
2021/10/20 06:31:16;;;;;;;15.82;8.40;;;;;;;9.10;97.59;97934.06;4991235;28;20057;-62
2021/10/20 06:33:42;;;;;;;12.70;6.93;;;;;;;9.51;97.48;97934.31;4994151;28;20030;-62
2021/10/20 06:36:18;;;;;;;12.98;7.85;;;;;;;9.58;94.76;97935.78;4991273;28;20623;-60
2021/10/20 06:38:43;;;;;;;15.10;7.47;;;;;;;9.40;97.07;97935.53;4991970;28;20065;-60
2021/10/20 06:41:09;;;;;;;14.38;7.82;;;;;;;8.99;97.48;97934.47;4991630;28;20066;-64
2021/10/20 06:43:34;;;;;;;13.68;7.60;;;;;;;9.21;98.52;97931.94;4993360;28;20038;-61
2021/10/20 06:46:02;;;;;;;12.38;5.82;;;;;;;9.66;100.00;97928.50;4992549;28;20034;-60
2021/10/20 06:48:27;;;;;;;15.25;8.32;;;;;;;9.50;98.53;97929.97;4991029;28;20040;-62
2021/10/20 06:50:53;;;;;;;14.60;7.32;;;;;;;9.69;100.00;97930.16;4989127;28;20034;-62
2021/10/20 06:53:18;;;;;;;12.20;7.32;;;;;;;9.59;99.15;97932.25;4992411;28;20041;-62
2021/10/20 06:55:45;;;;;;;12.23;7.60;;;;;;;9.72;99.04;97932.63;4991439;28;20061;-62
2021/10/20 06:58:10;;;;;;;13.15;7.63;;;;;;;9.55;97.91;97930.66;4991594;28;20735;-64
2021/10/20 07:00:36;;;;;;;16.08;8.70;;;;;;;9.89;100.00;97934.56;4993652;28;20033;-62
2021/10/20 07:03:01;;;;;;;12.45;7.97;;;;;;;9.86;99.42;97932.09;4988807;28;20030;-62
2021/10/20 07:05:26;;;;;;;13.02;8.00;;;;;;;10.79;98.41;97932.66;4994086;28;20041;-64
2021/10/20 07:07:52;;;;;;;517.33;28.65;;;;;;;12.41;96.08;97926.09;4992823;28;20060;-63
2021/10/20 07:10:17;;;;;;;1999.90;186.77;;;;;;;13.53;100.00;97919.47;4990432;28;20101;-62
2021/10/20 07:12:42;;;;;;;1999.90;651.17;;;;;;;15.23;100.00;97921.94;4991710;28;20037;-63
2021/10/20 07:15:08;;;;;;;253.57;15.88;;;;;;;15.79;96.84;97915.91;4989790;28;20400;-62
2021/10/20 07:17:34;;;;;;;15.15;6.28;;;;;;;17.20;77.87;97912.75;4992797;28;20022;-63
2021/10/20 07:19:59;;;;;;;8.05;5.32;;;;;;;19.51;84.32;97911.63;4992597;28;20037;-62
2021/10/20 07:22:27;;;;;;;9.73;5.50;;;;;;;19.55;73.75;97919.16;4990819;28;20188;-64
2021/10/20 07:24:52;;;;;;;9.93;5.00;;;;;;;20.65;69.73;97918.34;4994335;28;20023;-63
2021/10/20 07:27:18;;;;;;;10.23;4.50;;;;;;;19.18;62.09;97910.66;4991357;28;20092;-62
2021/10/20 07:29:47;;;;;;;8.30;4.43;;;;;;;20.26;58.53;97907.41;4993028;28;20030;-63
2021/10/20 07:32:13;;;;;;;11.13;4.28;;;;;;;21.84;56.88;97917.00;4990982;28;20042;-65
2021/10/20 07:34:38;;;;;;;8.20;4.25;;;;;;;21.64;53.04;97897.53;4991872;28;20018;-63
2021/10/20 07:37:04;;;;;;;10.00;4.35;;;;;;;22.39;51.02;97897.94;4988048;28;20049;-65
2021/10/20 07:39:30;;;;;;;7.82;3.95;;;;;;;22.84;48.30;97890.19;4990624;28;20034;-62
2021/10/20 07:41:55;;;;;;;10.35;4.38;;;;;;;23.72;47.86;97886.41;4988773;28;20046;-63
2021/10/20 07:44:20;;;;;;;7.25;4.00;;;;;;;24.26;45.55;97887.31;4991094;28;20132;-63
2021/10/20 07:46:45;;;;;;;7.95;4.03;;;;;;;24.40;46.07;97878.78;4991413;28;20061;-63
2021/10/20 07:49:12;;;;;;;6.15;3.92;;;;;;;24.81;45.24;97879.16;4988172;28;20081;-62
2021/10/20 07:51:38;;;;;;;6.18;4.00;;;;;;;23.70;47.04;97869.75;4991892;28;20039;-64
2021/10/20 07:54:03;;;;;;;10.40;4.00;;;;;;;21.82;50.22;97876.47;4989496;28;20030;-62
2021/10/20 07:56:33;;;;;;;6.32;4.18;;;;;;;20.46;52.97;97877.44;4989320;28;20108;-62
2021/10/20 07:59:00;;;;;;;7.82;4.47;;;;;;;19.68;55.41;97868.75;4991482;28;20034;-63
2021/10/20 08:01:26;;;;;;;6.63;4.50;;;;;;;18.97;57.42;97882.28;4988355;28;20042;-61
2021/10/20 08:03:51;;;;;;;6.00;4.20;;;;;;;18.31;59.86;97879.31;4995190;28;20608;-62
2021/10/20 08:06:17;;;;;;;7.43;4.60;;;;;;;17.47;62.28;97873.91;4991805;28;20042;-62
2021/10/20 08:08:43;;;;;;;7.90;4.53;;;;;;;17.79;61.24;97880.47;4989844;28;20137;-60
2021/10/20 08:11:08;;;;;;;6.72;4.35;;;;;;;17.68;63.03;97870.69;4990042;28;20157;-62
2021/10/20 08:13:33;;;;;;;9.98;4.68;;;;;;;17.24;64.33;97872.91;4990439;28;20029;-62
2021/10/20 08:15:59;;;;;;;7.88;4.72;;;;;;;16.31;67.03;97867.78;4990742;28;20065;-62
2021/10/20 08:18:24;;;;;;;7.30;4.90;;;;;;;16.47;68.36;97864.97;4990635;28;20388;-60
2021/10/20 08:20:50;;;;;;;14.95;5.00;;;;;;;16.27;69.62;97868.09;4990354;28;20034;-61
2021/10/20 08:23:15;;;;;;;8.35;4.72;;;;;;;16.49;68.79;97864.88;4990015;28;20026;-60
2021/10/20 08:25:41;;;;;;;7.35;4.53;;;;;;;16.65;69.77;97870.81;4992835;28;20034;-63
2021/10/20 08:28:07;;;;;;;7.53;4.65;;;;;;;17.11;67.17;97861.53;4991193;28;20123;-61
2021/10/20 08:30:36;;;;;;;8.35;4.30;;;;;;;17.36;67.59;97859.81;4993864;28;20053;-61
2021/10/20 08:33:03;;;;;;;7.05;4.50;;;;;;;17.54;66.90;97851.44;4995850;28;20031;-61
2021/10/20 08:35:29;;;;;;;6.78;4.60;;;;;;;17.11;68.27;97845.72;4992952;28;20419;-62
2021/10/20 08:38:00;;;;;;;7.85;4.43;;;;;;;18.25;66.84;97837.50;4997080;28;20871;-60
2021/10/20 08:40:31;;;;;;;7.90;3.70;;;;;;;19.29;61.67;97828.66;4993682;28;20516;-62
2021/10/20 08:42:57;;;;;;;6.23;3.57;;;;;;;20.06;56.52;97834.91;4994661;28;20038;-62
2021/10/20 08:45:23;;;;;;;9.45;3.50;;;;;;;21.30;54.08;97824.34;4995653;28;20048;-61
2021/10/20 08:47:49;;;;;;;7.32;3.67;;;;;;;21.88;51.85;97828.13;4994620;28;20030;-61
2021/10/20 08:50:28;;;;;;;7.47;3.78;;;;;;;20.10;55.05;97823.09;4990972;28;20105;-62
2021/10/20 08:52:54;;;;;;;6.22;3.28;;;;;;;21.43;52.32;97818.81;4992272;28;20046;-62
2021/10/20 08:55:21;;;;;;;6.15;3.60;;;;;;;23.11;47.72;97811.47;4993183;28;20740;-61
2021/10/20 08:57:48;;;;;;;6.97;3.47;;;;;;;23.07;46.45;97797.63;4991685;28;20599;-62
2021/10/20 09:00:14;;;;;;;8.25;2.92;;;;;;;24.14;43.96;97797.94;4991886;28;20026;-60
2021/10/20 09:02:45;;;;;;;8.75;3.10;;;;;;;24.42;43.57;97791.50;4994458;28;20873;-61
2021/10/20 09:05:15;;;;;;;4.32;2.88;;;;;;;22.99;46.54;97786.00;4995094;28;20084;-61
2021/10/20 09:07:42;;;;;;;5.95;2.90;;;;;;;22.43;46.45;97791.22;4994014;28;20624;-62
2021/10/20 09:10:08;;;;;;;5.28;3.10;;;;;;;24.47;43.70;97796.38;4994223;28;20032;-63
2021/10/20 09:12:42;;;;;;;6.20;2.80;;;;;;;23.19;46.40;97786.78;4994073;28;20029;-62
2021/10/20 09:15:17;;;;;;;8.07;2.92;;;;;;;23.78;43.47;97781.94;4993095;28;20030;-61
2021/10/20 09:17:44;;;;;;;5.25;2.92;;;;;;;23.75;43.51;97774.28;4993700;28;20026;-62
2021/10/20 09:20:33;;;;;;;4.75;3.08;;;;;;;24.68;42.40;97768.53;4991470;28;20034;-62
2021/10/20 09:23:08;;;;;;;5.50;2.90;;;;;;;23.90;43.03;97770.09;4992479;28;20040;-61
2021/10/20 09:25:33;;;;;;;5.88;2.60;;;;;;;24.57;44.45;97773.13;4992581;28;20057;-61
2021/10/20 09:27:59;;;;;;;5.47;2.70;;;;;;;23.68;44.19;97774.84;4993420;28;20403;-62
2021/10/20 09:30:28;;;;;;;4.95;2.78;;;;;;;23.16;44.64;97782.63;4993155;28;20033;-64
2021/10/20 09:32:56;;;;;;;5.18;2.80;;;;;;;22.43;45.21;97791.22;4991791;28;20105;-62
2021/10/20 09:35:22;;;;;;;5.45;2.60;;;;;;;22.99;45.35;97783.34;4991905;28;20054;-63
2021/10/20 09:37:47;;;;;;;5.53;2.95;;;;;;;22.89;44.59;97791.38;5001627;28;20021;-61
2021/10/20 09:40:14;;;;;;;4.00;2.75;;;;;;;22.71;46.59;97783.31;4992469;28;20141;-62
2021/10/20 09:42:48;;;;;;;4.72;3.28;;;;;;;22.56;48.63;97774.97;4991802;28;20038;-62
2021/10/20 09:45:15;;;;;;;6.22;3.00;;;;;;;22.12;49.55;97772.75;4994067;28;20053;-62
2021/10/20 09:47:41;;;;;;;5.53;3.08;;;;;;;22.25;48.63;97766.31;4993711;28;20496;-61
2021/10/20 09:50:07;;;;;;;5.25;3.17;;;;;;;22.18;49.22;97757.25;4989781;28;20049;-60
2021/10/20 09:52:50;;;;;;;4.70;3.03;;;;;;;22.92;46.23;97764.50;4994301;28;20049;-60
2021/10/20 09:55:29;;;;;;;5.20;2.80;;;;;;;21.93;47.49;97746.25;4991132;28;20029;-60
2021/10/20 09:58:02;;;;;;;5.72;3.00;;;;;;;23.38;43.78;97746.78;4991292;28;20081;-62
2021/10/20 10:00:28;;;;;;;4.30;2.67;;;;;;;22.80;43.71;97744.38;4990694;28;20061;-61
2021/10/20 10:02:56;;;;;;;6.25;2.97;;;;;;;22.68;43.68;97730.41;4993155;28;20034;-63
2021/10/20 10:05:22;;;;;;;6.13;2.88;;;;;;;22.13;45.41;97721.34;4992066;28;21457;-61
2021/10/20 10:07:47;;;;;;;4.40;2.65;;;;;;;23.66;44.65;97715.59;4994480;28;20030;-63
2021/10/20 10:10:12;;;;;;;4.40;2.78;;;;;;;23.17;43.34;97703.63;4991869;28;20025;-61
2021/10/20 10:12:39;;;;;;;6.43;3.00;;;;;;;23.76;42.79;97714.69;4994121;28;20076;-61
2021/10/20 10:15:09;;;;;;;4.55;2.55;;;;;;;24.82;41.80;97711.94;4991759;28;20026;-62
2021/10/20 10:17:37;;;;;;;4.00;2.60;;;;;;;23.48;44.52;97702.28;4991338;28;20168;-61
2021/10/20 10:20:10;;;;;;;4.80;2.90;;;;;;;23.22;43.35;97686.22;4990377;28;20029;-61
2021/10/20 10:22:52;;;;;;;5.20;2.60;;;;;;;22.86;43.96;97685.28;4989938;28;20404;-63
2021/10/20 10:25:39;;;;;;;6.30;2.70;;;;;;;23.34;44.13;97688.66;4991914;28;20595;-64
2021/10/20 10:28:19;;;;;;;4.78;2.78;;;;;;;24.77;44.63;97691.06;4992356;28;20033;-62
2021/10/20 10:30:55;;;;;;;4.80;2.40;;;;;;;22.83;45.04;97678.47;4991454;28;20044;-62
2021/10/20 10:33:26;;;;;;;5.00;2.85;;;;;;;23.60;43.40;97657.66;4991492;28;20108;-62
2021/10/20 10:36:13;;;;;;;4.33;2.70;;;;;;;24.02;42.07;97651.69;4991507;28;20239;-61
2021/10/20 10:38:44;;;;;;;5.07;2.67;;;;;;;24.03;44.08;97650.66;4991941;28;20488;-62
2021/10/20 10:41:22;;;;;;;6.97;2.72;;;;;;;24.12;43.71;97651.56;4991289;28;20608;-61
2021/10/20 10:44:09;;;;;;;4.75;2.60;;;;;;;23.99;48.27;97649.31;4991292;28;20657;-61
2021/10/20 10:46:37;;;;;;;6.47;2.53;;;;;;;23.23;45.11;97642.69;4992308;28;20070;-63
2021/10/20 10:49:21;;;;;;;4.32;2.60;;;;;;;23.63;45.76;97646.69;4994228;28;20030;-62
2021/10/20 10:52:02;;;;;;;4.20;2.60;;;;;;;23.00;45.43;97633.44;4989951;28;20531;-63
2021/10/20 10:54:35;;;;;;;4.10;2.50;;;;;;;23.07;50.26;97642.53;4993577;28;20034;-61
2021/10/20 10:57:14;;;;;;;5.35;2.53;;;;;;;23.85;45.05;97636.56;4991308;28;20173;-62
2021/10/20 10:59:52;;;;;;;4.60;2.58;;;;;;;22.65;49.46;97627.91;4991247;28;20038;-61
2021/10/20 11:02:37;;;;;;;5.45;2.50;;;;;;;22.35;50.88;97617.53;4990711;28;20053;-62
2021/10/20 11:05:04;;;;;;;4.07;2.55;;;;;;;21.84;48.50;97604.56;4990657;28;20034;-61
2021/10/20 11:07:30;;;;;;;4.07;2.60;;;;;;;22.25;46.99;97612.25;4990317;28;20435;-62
2021/10/20 11:09:57;;;;;;;3.35;2.50;;;;;;;22.44;49.90;97600.72;4990459;28;20456;-61
2021/10/20 11:12:24;;;;;;;5.63;2.65;;;;;;;22.71;46.94;97603.38;4991726;28;20132;-62
2021/10/20 11:14:53;;;;;;;4.85;2.60;;;;;;;22.32;47.18;97602.75;4991113;28;20061;-60
2021/10/20 11:17:19;;;;;;;3.97;2.60;;;;;;;23.16;49.84;97591.06;4990271;28;20096;-60
2021/10/20 11:19:44;;;;;;;5.22;2.65;;;;;;;22.97;49.38;97591.19;4991888;28;20080;-62
2021/10/20 11:22:10;;;;;;;7.35;2.70;;;;;;;22.36;46.58;97585.53;4991213;28;20384;-61
2021/10/20 11:24:42;;;;;;;6.28;3.05;;;;;;;22.37;49.84;97600.50;4992020;28;20496;-61
2021/10/20 11:27:09;;;;;;;8.57;2.60;;;;;;;22.60;47.70;97584.16;4991815;28;20041;-63
2021/10/20 11:29:42;;;;;;;4.72;2.83;;;;;;;22.17;45.91;97583.78;4991920;28;20026;-60
2021/10/20 11:32:14;;;;;;;4.05;2.60;;;;;;;22.09;46.79;97581.84;4991769;28;20406;-61